SWR2810 LSGG-LSZH
Flight info
| Callsign | SWR2810 |
|---|---|
| Flight time | 0h 50m |
| Altitude | 17000 |
| Route | SOSAL N871 BERSU |
| Aircraft | A359/H-VGD/A |
Departure
| Time | 2026-04-26 08:41 |
|---|---|
| Airport | Geneva International Airport (LSGG) |
Arrival
| Time | 2026-04-26 09:31 |
|---|---|
| Airport | Zürich Airport (LSZH) |
| Time | Latitude | Longitude | Altitude | Speed | Heading |
|---|---|---|---|---|---|
| 2026-04-26 08:19 | 46.23383 | 6.11037 | 1399 ft | 0 kts | 135° |
| 2026-04-26 08:28 | 46.23394 | 6.11020 | 1409 ft | 4 kts | 126° |
| 2026-04-26 08:28 | 46.23409 | 6.10991 | 1409 ft | 2 kts | 135° |
| 2026-04-26 08:29 | 46.23422 | 6.10973 | 1409 ft | 4 kts | 167° |
| 2026-04-26 08:29 | 46.23439 | 6.10974 | 1409 ft | 4 kts | 211° |
| 2026-04-26 08:29 | 46.23458 | 6.10995 | 1409 ft | 4 kts | 226° |
| 2026-04-26 08:29 | 46.23477 | 6.11024 | 1409 ft | 4 kts | 225° |
| 2026-04-26 08:30 | 46.23483 | 6.11032 | 1409 ft | 0 kts | 225° |
| 2026-04-26 08:32 | 46.23475 | 6.11020 | 1409 ft | 5 kts | 226° |
| 2026-04-26 08:33 | 46.23438 | 6.10967 | 1409 ft | 9 kts | 225° |
| 2026-04-26 08:33 | 46.23387 | 6.10890 | 1400 ft | 12 kts | 226° |
| 2026-04-26 08:33 | 46.23367 | 6.10861 | 1400 ft | 1 kts | 225° |
| 2026-04-26 08:33 | 46.23353 | 6.10829 | 1409 ft | 5 kts | 250° |
| 2026-04-26 08:34 | 46.23365 | 6.10784 | 1407 ft | 6 kts | 309° |
| 2026-04-26 08:34 | 46.23402 | 6.10726 | 1408 ft | 10 kts | 315° |
| 2026-04-26 08:34 | 46.23405 | 6.10655 | 1406 ft | 8 kts | 238° |
| 2026-04-26 08:34 | 46.23363 | 6.10588 | 1403 ft | 11 kts | 225° |
| 2026-04-26 08:35 | 46.23304 | 6.10502 | 1409 ft | 13 kts | 225° |
| 2026-04-26 08:35 | 46.23236 | 6.10402 | 1409 ft | 15 kts | 225° |
| 2026-04-26 08:35 | 46.23169 | 6.10303 | 1406 ft | 13 kts | 226° |
| 2026-04-26 08:35 | 46.23105 | 6.10200 | 1406 ft | 13 kts | 227° |
| 2026-04-26 08:36 | 46.23035 | 6.10097 | 1406 ft | 16 kts | 226° |
| 2026-04-26 08:36 | 46.22956 | 6.09980 | 1409 ft | 15 kts | 225° |
| 2026-04-26 08:36 | 46.22889 | 6.09882 | 1409 ft | 14 kts | 227° |
| 2026-04-26 08:36 | 46.22816 | 6.09774 | 1407 ft | 16 kts | 224° |
| 2026-04-26 08:37 | 46.22754 | 6.09683 | 1409 ft | 13 kts | 226° |
| 2026-04-26 08:37 | 46.22685 | 6.09582 | 1410 ft | 15 kts | 225° |
| 2026-04-26 08:37 | 46.22613 | 6.09476 | 1407 ft | 16 kts | 226° |
| 2026-04-26 08:37 | 46.22554 | 6.09352 | 1414 ft | 14 kts | 253° |
| 2026-04-26 08:38 | 46.22549 | 6.09269 | 1420 ft | 0 kts | 272° |
| 2026-04-26 08:39 | 46.22551 | 6.09235 | 1421 ft | 7 kts | 279° |
| 2026-04-26 08:39 | 46.22579 | 6.09159 | 1426 ft | 8 kts | 318° |
| 2026-04-26 08:39 | 46.22613 | 6.09158 | 1425 ft | 4 kts | 25° |
| 2026-04-26 08:40 | 46.22643 | 6.09192 | 1426 ft | 7 kts | 43° |
| 2026-04-26 08:40 | 46.22700 | 6.09272 | 1427 ft | 24 kts | 44° |
| 2026-04-26 08:40 | 46.23010 | 6.09726 | 1423 ft | 100 kts | 46° |
| 2026-04-26 08:40 | 46.23656 | 6.10679 | 1404 ft | 164 kts | 46° |
| 2026-04-26 08:41 | 46.24452 | 6.11843 | 2254 ft | 155 kts | 45° |
| 2026-04-26 08:41 | 46.25220 | 6.12984 | 2943 ft | 170 kts | 45° |
| 2026-04-26 08:41 | 46.26108 | 6.14296 | 3250 ft | 193 kts | 45° |
| 2026-04-26 08:41 | 46.27095 | 6.15757 | 3638 ft | 211 kts | 46° |
| 2026-04-26 08:42 | 46.28171 | 6.17363 | 4017 ft | 234 kts | 45° |
| 2026-04-26 08:42 | 46.29358 | 6.19092 | 4497 ft | 248 kts | 45° |
| 2026-04-26 08:42 | 46.30589 | 6.20888 | 5135 ft | 254 kts | 45° |
| 2026-04-26 08:42 | 46.31834 | 6.22712 | 5938 ft | 251 kts | 45° |
| 2026-04-26 08:43 | 46.33078 | 6.24538 | 6494 ft | 262 kts | 45° |
| 2026-04-26 08:43 | 46.34372 | 6.26443 | 7116 ft | 267 kts | 45° |
| 2026-04-26 08:43 | 46.35673 | 6.28365 | 7791 ft | 269 kts | 45° |
| 2026-04-26 08:43 | 46.36818 | 6.30525 | 8455 ft | 274 kts | 62° |
| 2026-04-26 08:44 | 46.37485 | 6.33111 | 9156 ft | 277 kts | 73° |
| 2026-04-26 08:44 | 46.38010 | 6.35821 | 9835 ft | 281 kts | 73° |
| 2026-04-26 08:44 | 46.38184 | 6.36717 | 10060 ft | 282 kts | 73° |
| 2026-04-26 08:44 | 46.38732 | 6.39511 | 10459 ft | 295 kts | 73° |
| 2026-04-26 08:45 | 46.39316 | 6.42449 | 10752 ft | 311 kts | 73° |
| 2026-04-26 08:45 | 46.39931 | 6.45529 | 11060 ft | 325 kts | 73° |
| 2026-04-26 08:45 | 46.40350 | 6.47628 | 11308 ft | 331 kts | 73° |
| 2026-04-26 08:45 | 46.40999 | 6.50874 | 11786 ft | 338 kts | 73° |
| 2026-04-26 08:46 | 46.41653 | 6.54156 | 12323 ft | 342 kts | 73° |
| 2026-04-26 08:46 | 46.42316 | 6.57489 | 12892 ft | 345 kts | 73° |
| 2026-04-26 08:46 | 46.42986 | 6.60855 | 13442 ft | 349 kts | 73° |
| 2026-04-26 08:46 | 46.43659 | 6.64243 | 13979 ft | 352 kts | 73° |
| 2026-04-26 08:47 | 46.44466 | 6.67604 | 14439 ft | 355 kts | 63° |
| 2026-04-26 08:47 | 46.45820 | 6.70601 | 14951 ft | 356 kts | 50° |
| 2026-04-26 08:47 | 46.47397 | 6.73404 | 15433 ft | 360 kts | 49° |
| 2026-04-26 08:47 | 46.48998 | 6.76235 | 15896 ft | 364 kts | 50° |
| 2026-04-26 08:48 | 46.50605 | 6.79097 | 16431 ft | 368 kts | 50° |
| 2026-04-26 08:48 | 46.52225 | 6.81998 | 16922 ft | 371 kts | 50° |
| 2026-04-26 08:48 | 46.53853 | 6.84922 | 17171 ft | 371 kts | 50° |
| 2026-04-26 08:48 | 46.55471 | 6.87836 | 17209 ft | 370 kts | 50° |
| 2026-04-26 08:49 | 46.57096 | 6.90752 | 17199 ft | 370 kts | 50° |
| 2026-04-26 08:49 | 46.58719 | 6.93664 | 17203 ft | 371 kts | 50° |
| 2026-04-26 08:49 | 46.60344 | 6.96586 | 17199 ft | 371 kts | 50° |
| 2026-04-26 08:49 | 46.61944 | 6.99471 | 17206 ft | 371 kts | 50° |
| 2026-04-26 08:50 | 46.63563 | 7.02393 | 17200 ft | 371 kts | 50° |
| 2026-04-26 08:50 | 46.65179 | 7.05318 | 17209 ft | 371 kts | 50° |
| 2026-04-26 08:50 | 46.66802 | 7.08251 | 17206 ft | 371 kts | 50° |
| 2026-04-26 08:50 | 46.68419 | 7.11177 | 17206 ft | 371 kts | 50° |
| 2026-04-26 08:51 | 46.71660 | 7.17041 | 17205 ft | 371 kts | 50° |
| 2026-04-26 08:51 | 46.73281 | 7.19985 | 17204 ft | 371 kts | 50° |
| 2026-04-26 08:51 | 46.74898 | 7.22925 | 17209 ft | 371 kts | 50° |
| 2026-04-26 08:52 | 46.76514 | 7.25868 | 17191 ft | 371 kts | 50° |
| 2026-04-26 08:52 | 46.78129 | 7.28809 | 17191 ft | 372 kts | 50° |
| 2026-04-26 08:52 | 46.79746 | 7.31755 | 17186 ft | 371 kts | 50° |
| 2026-04-26 08:52 | 46.81360 | 7.34699 | 17189 ft | 371 kts | 50° |
| 2026-04-26 08:53 | 46.82976 | 7.37649 | 17184 ft | 371 kts | 50° |
| 2026-04-26 08:53 | 46.84567 | 7.40557 | 17183 ft | 371 kts | 50° |
| 2026-04-26 08:53 | 46.86180 | 7.43509 | 17185 ft | 371 kts | 50° |
| 2026-04-26 08:53 | 46.87792 | 7.46464 | 17181 ft | 371 kts | 50° |
| 2026-04-26 08:54 | 46.89401 | 7.49418 | 17184 ft | 371 kts | 50° |
| 2026-04-26 08:54 | 46.91011 | 7.52376 | 17181 ft | 371 kts | 50° |
| 2026-04-26 08:54 | 46.92619 | 7.55333 | 17184 ft | 371 kts | 50° |
| 2026-04-26 08:54 | 46.94227 | 7.58292 | 17185 ft | 371 kts | 50° |
| 2026-04-26 08:55 | 46.95830 | 7.61246 | 17182 ft | 371 kts | 50° |
| 2026-04-26 08:55 | 46.97435 | 7.64205 | 17189 ft | 371 kts | 50° |
| 2026-04-26 08:55 | 46.99019 | 7.67130 | 17192 ft | 371 kts | 50° |
| 2026-04-26 08:55 | 47.00218 | 7.69346 | 17188 ft | 371 kts | 50° |
| 2026-04-26 08:56 | 47.01840 | 7.72348 | 17194 ft | 370 kts | 50° |
| 2026-04-26 08:56 | 47.03439 | 7.75306 | 17194 ft | 371 kts | 50° |
| 2026-04-26 08:56 | 47.05017 | 7.78232 | 17193 ft | 371 kts | 50° |
| 2026-04-26 08:56 | 47.06618 | 7.81203 | 17200 ft | 371 kts | 50° |
| 2026-04-26 08:57 | 47.08217 | 7.84176 | 17199 ft | 371 kts | 50° |
| 2026-04-26 08:57 | 47.09817 | 7.87146 | 17209 ft | 371 kts | 50° |
| 2026-04-26 08:57 | 47.11416 | 7.90124 | 17208 ft | 371 kts | 50° |
| 2026-04-26 08:57 | 47.12996 | 7.93114 | 17208 ft | 371 kts | 52° |
| 2026-04-26 08:58 | 47.14313 | 7.96395 | 17207 ft | 373 kts | 63° |
| 2026-04-26 08:58 | 47.15421 | 7.99842 | 17213 ft | 373 kts | 64° |
| 2026-04-26 08:58 | 47.16502 | 8.03250 | 17213 ft | 373 kts | 64° |
| 2026-04-26 08:58 | 47.17242 | 8.05576 | 17213 ft | 373 kts | 64° |
| 2026-04-26 08:59 | 47.17988 | 8.07924 | 17206 ft | 373 kts | 64° |
| 2026-04-26 08:59 | 47.19055 | 8.11277 | 17211 ft | 373 kts | 64° |
| 2026-04-26 08:59 | 47.20151 | 8.14729 | 17075 ft | 369 kts | 64° |
| 2026-04-26 09:00 | 47.21279 | 8.18130 | 16414 ft | 371 kts | 59° |
| 2026-04-26 09:00 | 47.22870 | 8.21087 | 15773 ft | 368 kts | 40° |
| 2026-04-26 09:00 | 47.24749 | 8.22877 | 15317 ft | 363 kts | 22° |
| 2026-04-26 09:00 | 47.27160 | 8.23798 | 14800 ft | 358 kts | 3° |
| 2026-04-26 09:01 | 47.29598 | 8.23517 | 14263 ft | 346 kts | 344° |
| 2026-04-26 09:01 | 47.31804 | 8.22122 | 13697 ft | 346 kts | 327° |
| 2026-04-26 09:01 | 47.33595 | 8.19774 | 13086 ft | 345 kts | 309° |
| 2026-04-26 09:01 | 47.35014 | 8.16955 | 12510 ft | 344 kts | 308° |
| 2026-04-26 09:02 | 47.36747 | 8.14522 | 11928 ft | 342 kts | 326° |
| 2026-04-26 09:02 | 47.38807 | 8.12819 | 11362 ft | 339 kts | 333° |
| 2026-04-26 09:02 | 47.40917 | 8.11262 | 10809 ft | 339 kts | 334° |
| 2026-04-26 09:02 | 47.42994 | 8.09720 | 10242 ft | 325 kts | 334° |
| 2026-04-26 09:03 | 47.44968 | 8.08246 | 9651 ft | 312 kts | 334° |
| 2026-04-26 09:03 | 47.46872 | 8.06823 | 9051 ft | 301 kts | 334° |
| 2026-04-26 09:03 | 47.48711 | 8.05448 | 8467 ft | 293 kts | 334° |
| 2026-04-26 09:03 | 47.50494 | 8.04093 | 7982 ft | 284 kts | 332° |
| 2026-04-26 09:04 | 47.52023 | 8.02302 | 7385 ft | 281 kts | 309° |
| 2026-04-26 09:04 | 47.52761 | 8.00144 | 7086 ft | 274 kts | 284° |
| 2026-04-26 09:04 | 47.52864 | 7.98755 | 7001 ft | 265 kts | 268° |
| 2026-04-26 09:04 | 47.52549 | 7.96119 | 6974 ft | 259 kts | 255° |
| 2026-04-26 09:05 | 47.52076 | 7.93537 | 6988 ft | 260 kts | 255° |
| 2026-04-26 09:05 | 47.51650 | 7.90966 | 6992 ft | 261 kts | 257° |
| 2026-04-26 09:05 | 47.51024 | 7.88458 | 6992 ft | 262 kts | 239° |
| 2026-04-26 09:05 | 47.49791 | 7.86535 | 6973 ft | 258 kts | 210° |
| 2026-04-26 09:06 | 47.48097 | 7.85807 | 6976 ft | 255 kts | 179° |
| 2026-04-26 09:06 | 47.46397 | 7.86401 | 6989 ft | 252 kts | 151° |
| 2026-04-26 09:06 | 47.45092 | 7.88071 | 6985 ft | 249 kts | 123° |
| 2026-04-26 09:06 | 47.44468 | 7.90376 | 6960 ft | 235 kts | 96° |
| 2026-04-26 09:07 | 47.44773 | 7.92651 | 6911 ft | 227 kts | 60° |
| 2026-04-26 09:07 | 47.45738 | 7.94474 | 6729 ft | 226 kts | 49° |
| 2026-04-26 09:07 | 47.46764 | 7.96228 | 6471 ft | 224 kts | 51° |
| 2026-04-26 09:07 | 47.47709 | 7.98053 | 6209 ft | 223 kts | 54° |
| 2026-04-26 09:08 | 47.48608 | 7.99905 | 5955 ft | 220 kts | 56° |
| 2026-04-26 09:08 | 47.49415 | 8.01809 | 5717 ft | 217 kts | 59° |
| 2026-04-26 09:08 | 47.50208 | 8.03683 | 5616 ft | 217 kts | 59° |
| 2026-04-26 09:08 | 47.51039 | 8.05632 | 5508 ft | 227 kts | 58° |
| 2026-04-26 09:09 | 47.51886 | 8.07619 | 5361 ft | 228 kts | 59° |
| 2026-04-26 09:09 | 47.52711 | 8.09594 | 5275 ft | 229 kts | 59° |
| 2026-04-26 09:09 | 47.53540 | 8.11595 | 5112 ft | 227 kts | 59° |
| 2026-04-26 09:09 | 47.54380 | 8.13591 | 5022 ft | 227 kts | 59° |
| 2026-04-26 09:10 | 47.55198 | 8.15553 | 4899 ft | 221 kts | 60° |
| 2026-04-26 09:10 | 47.56002 | 8.17510 | 4744 ft | 217 kts | 59° |
| 2026-04-26 09:10 | 47.56777 | 8.19386 | 4641 ft | 211 kts | 58° |
| 2026-04-26 09:10 | 47.57531 | 8.21192 | 4551 ft | 207 kts | 60° |
| 2026-04-26 09:11 | 47.58275 | 8.23023 | 4443 ft | 208 kts | 59° |
| 2026-04-26 09:11 | 47.59026 | 8.24824 | 4313 ft | 204 kts | 59° |
| 2026-04-26 09:11 | 47.59773 | 8.26598 | 4206 ft | 202 kts | 59° |
| 2026-04-26 09:11 | 47.60489 | 8.28337 | 4165 ft | 193 kts | 60° |
| 2026-04-26 09:12 | 47.61184 | 8.30019 | 4078 ft | 190 kts | 60° |
| 2026-04-26 09:12 | 47.61754 | 8.31778 | 3994 ft | 190 kts | 73° |
| 2026-04-26 09:12 | 47.61857 | 8.33731 | 4009 ft | 192 kts | 97° |
| 2026-04-26 09:12 | 47.61366 | 8.35536 | 4006 ft | 193 kts | 123° |
| 2026-04-26 09:13 | 47.60454 | 8.36955 | 3969 ft | 183 kts | 136° |
| 2026-04-26 09:13 | 47.59540 | 8.38123 | 3977 ft | 164 kts | 135° |
| 2026-04-26 09:13 | 47.58736 | 8.39213 | 3979 ft | 151 kts | 133° |
| 2026-04-26 09:13 | 47.57971 | 8.40272 | 4035 ft | 153 kts | 134° |
| 2026-04-26 09:14 | 47.57164 | 8.41381 | 3841 ft | 160 kts | 133° |
| 2026-04-26 09:14 | 47.56359 | 8.42496 | 3672 ft | 160 kts | 133° |
| 2026-04-26 09:14 | 47.55505 | 8.43659 | 3410 ft | 170 kts | 134° |
| 2026-04-26 09:14 | 47.54636 | 8.44843 | 3182 ft | 168 kts | 133° |
| 2026-04-26 09:15 | 47.53793 | 8.46001 | 2959 ft | 160 kts | 134° |
| 2026-04-26 09:15 | 47.52997 | 8.47084 | 2740 ft | 149 kts | 133° |
| 2026-04-26 09:15 | 47.52268 | 8.48077 | 2540 ft | 138 kts | 133° |
| 2026-04-26 09:15 | 47.51578 | 8.49021 | 2355 ft | 134 kts | 134° |
| 2026-04-26 09:16 | 47.50896 | 8.49944 | 2177 ft | 136 kts | 135° |
| 2026-04-26 09:16 | 47.50187 | 8.50898 | 1983 ft | 137 kts | 134° |
| 2026-04-26 09:16 | 47.49498 | 8.51849 | 1775 ft | 134 kts | 133° |
| 2026-04-26 09:16 | 47.48818 | 8.52783 | 1615 ft | 134 kts | 134° |
| 2026-04-26 09:17 | 47.48121 | 8.53718 | 1453 ft | 136 kts | 133° |
| 2026-04-26 09:17 | 47.47665 | 8.54347 | 1422 ft | 135 kts | 131° |
| 2026-04-26 09:17 | 47.46825 | 8.55505 | 2400 ft | 121 kts | 133° |
| 2026-04-26 09:17 | 47.46197 | 8.56440 | 3159 ft | 142 kts | 131° |
| 2026-04-26 09:18 | 47.45495 | 8.57438 | 3529 ft | 163 kts | 134° |
| 2026-04-26 09:18 | 47.44576 | 8.58573 | 4008 ft | 181 kts | 139° |
| 2026-04-26 09:18 | 47.43514 | 8.59723 | 4552 ft | 197 kts | 142° |
| 2026-04-26 09:18 | 47.42326 | 8.60857 | 5128 ft | 209 kts | 147° |
| 2026-04-26 09:19 | 47.41303 | 8.62374 | 5798 ft | 214 kts | 116° |
| 2026-04-26 09:19 | 47.41163 | 8.64550 | 6493 ft | 222 kts | 77° |
| 2026-04-26 09:19 | 47.41991 | 8.66455 | 6875 ft | 229 kts | 40° |
| 2026-04-26 09:19 | 47.43410 | 8.67511 | 7001 ft | 231 kts | 17° |
| 2026-04-26 09:20 | 47.44998 | 8.67871 | 7000 ft | 232 kts | 5° |
| 2026-04-26 09:20 | 47.46611 | 8.68020 | 7001 ft | 232 kts | 4° |
| 2026-04-26 09:20 | 47.48231 | 8.68151 | 6970 ft | 234 kts | 3° |
| 2026-04-26 09:20 | 47.49880 | 8.68281 | 6996 ft | 240 kts | 3° |
| 2026-04-26 09:21 | 47.51560 | 8.68412 | 6995 ft | 243 kts | 3° |
| 2026-04-26 09:21 | 47.53244 | 8.68265 | 6996 ft | 244 kts | 346° |
| 2026-04-26 09:21 | 47.54841 | 8.67418 | 6997 ft | 244 kts | 336° |
| 2026-04-26 09:21 | 47.56389 | 8.66384 | 6978 ft | 244 kts | 335° |
| 2026-04-26 09:22 | 47.57931 | 8.65324 | 6979 ft | 244 kts | 335° |
| 2026-04-26 09:22 | 47.59469 | 8.64262 | 6993 ft | 244 kts | 335° |
| 2026-04-26 09:22 | 47.60907 | 8.62918 | 7000 ft | 245 kts | 321° |
| 2026-04-26 09:22 | 47.62203 | 8.61278 | 6847 ft | 246 kts | 319° |
| 2026-04-26 09:23 | 47.63475 | 8.59596 | 6495 ft | 243 kts | 318° |
| 2026-04-26 09:23 | 47.64728 | 8.57922 | 6112 ft | 243 kts | 319° |
| 2026-04-26 09:23 | 47.65975 | 8.56235 | 5722 ft | 242 kts | 319° |
| 2026-04-26 09:23 | 47.67187 | 8.54567 | 5341 ft | 232 kts | 317° |
| 2026-04-26 09:24 | 47.68126 | 8.52681 | 4937 ft | 223 kts | 297° |
| 2026-04-26 09:24 | 47.68496 | 8.50505 | 4633 ft | 217 kts | 270° |
| 2026-04-26 09:24 | 47.68118 | 8.48389 | 4277 ft | 212 kts | 244° |
| 2026-04-26 09:24 | 47.67461 | 8.46480 | 4029 ft | 202 kts | 240° |
| 2026-04-26 09:25 | 47.66791 | 8.44692 | 3989 ft | 201 kts | 239° |
| 2026-04-26 09:25 | 47.66097 | 8.42870 | 3988 ft | 201 kts | 239° |
| 2026-04-26 09:25 | 47.65420 | 8.41087 | 4004 ft | 200 kts | 239° |
| 2026-04-26 09:25 | 47.64744 | 8.39267 | 4029 ft | 202 kts | 240° |
| 2026-04-26 09:26 | 47.64012 | 8.37524 | 4011 ft | 199 kts | 226° |
| 2026-04-26 09:26 | 47.62909 | 8.36354 | 3991 ft | 196 kts | 200° |
| 2026-04-26 09:26 | 47.61585 | 8.36255 | 3993 ft | 191 kts | 161° |
| 2026-04-26 09:26 | 47.60377 | 8.36994 | 3987 ft | 186 kts | 141° |
| 2026-04-26 09:27 | 47.59422 | 8.38273 | 3987 ft | 185 kts | 130° |
| 2026-04-26 09:27 | 47.58501 | 8.39603 | 3992 ft | 185 kts | 134° |
| 2026-04-26 09:27 | 47.57546 | 8.40898 | 4035 ft | 186 kts | 135° |
| 2026-04-26 09:27 | 47.56584 | 8.42172 | 3731 ft | 187 kts | 134° |
| 2026-04-26 09:28 | 47.55623 | 8.43498 | 3453 ft | 190 kts | 134° |
| 2026-04-26 09:28 | 47.54688 | 8.44771 | 3206 ft | 178 kts | 133° |
| 2026-04-26 09:28 | 47.54084 | 8.45601 | 3039 ft | 174 kts | 133° |
| 2026-04-26 09:28 | 47.53205 | 8.46803 | 2800 ft | 169 kts | 134° |
| 2026-04-26 09:29 | 47.52111 | 8.48293 | 2509 ft | 153 kts | 134° |
| 2026-04-26 09:29 | 47.51592 | 8.49004 | 2360 ft | 148 kts | 134° |
| 2026-04-26 09:29 | 47.50631 | 8.50321 | 2019 ft | 134 kts | 134° |
| 2026-04-26 09:29 | 47.50167 | 8.50926 | 1939 ft | 131 kts | 135° |
| 2026-04-26 09:30 | 47.49498 | 8.51833 | 1778 ft | 132 kts | 134° |
| 2026-04-26 09:30 | 47.48822 | 8.52771 | 1626 ft | 135 kts | 135° |
| 2026-04-26 09:30 | 47.48124 | 8.53709 | 1439 ft | 135 kts | 133° |
| 2026-04-26 09:30 | 47.47488 | 8.54597 | 1408 ft | 110 kts | 137° |
| 2026-04-26 09:31 | 47.46989 | 8.55274 | 1404 ft | 85 kts | 137° |
| 2026-04-26 09:31 | 47.46718 | 8.55642 | 1406 ft | 24 kts | 137° |
| 2026-04-26 09:31 | 47.46598 | 8.55804 | 1407 ft | 23 kts | 140° |
| 2026-04-26 09:31 | 47.46454 | 8.55928 | 1410 ft | 24 kts | 158° |
| 2026-04-26 09:32 | 47.46304 | 8.55981 | 1415 ft | 19 kts | 167° |
| 2026-04-26 09:32 | 47.46182 | 8.56001 | 1417 ft | 16 kts | 180° |
| 2026-04-26 09:32 | 47.46063 | 8.55985 | 1413 ft | 18 kts | 187° |
| 2026-04-26 09:32 | 47.45937 | 8.55957 | 1419 ft | 19 kts | 198° |
| 2026-04-26 09:33 | 47.45811 | 8.55886 | 1421 ft | 19 kts | 198° |
| 2026-04-26 09:33 | 47.45683 | 8.55862 | 1419 ft | 14 kts | 185° |
| 2026-04-26 09:33 | 47.45647 | 8.55801 | 1419 ft | 8 kts | 262° |
| 2026-04-26 09:33 | 47.45651 | 8.55680 | 1413 ft | 15 kts | 275° |
| 2026-04-26 09:34 | 47.45664 | 8.55504 | 1414 ft | 19 kts | 276° |
| 2026-04-26 09:34 | 47.45667 | 8.55367 | 1410 ft | 0 kts | 248° |
| 2026-04-26 09:34 | 47.45657 | 8.55352 | 1413 ft | 4 kts | 222° |
| 2026-04-26 09:34 | 47.45612 | 8.55346 | 1412 ft | 8 kts | 164° |
| 2026-04-26 09:35 | 47.45548 | 8.55390 | 1412 ft | 11 kts | 154° |
| 2026-04-26 09:35 | 47.45473 | 8.55442 | 1417 ft | 12 kts | 155° |
| 2026-04-26 09:35 | 47.45387 | 8.55501 | 1416 ft | 15 kts | 155° |
| 2026-04-26 09:35 | 47.45283 | 8.55532 | 1417 ft | 16 kts | 188° |
| 2026-04-26 09:36 | 47.45179 | 8.55523 | 1410 ft | 15 kts | 163° |
| 2026-04-26 09:36 | 47.45091 | 8.55583 | 1416 ft | 6 kts | 155° |
| 2026-04-26 09:36 | 47.45063 | 8.55601 | 1411 ft | 6 kts | 155° |
| 2026-04-26 09:36 | 47.45014 | 8.55634 | 1413 ft | 9 kts | 155° |
| 2026-04-26 09:37 | 47.44967 | 8.55684 | 1411 ft | 7 kts | 126° |
| 2026-04-26 09:37 | 47.44960 | 8.55727 | 1411 ft | 3 kts | 97° |
| 2026-04-26 09:37 | 47.44954 | 8.55798 | 1413 ft | 5 kts | 94° |
| 2026-04-26 09:37 | 47.44958 | 8.55819 | 1413 ft | 2 kts | 70° |
| 2026-04-26 09:38 | 47.44967 | 8.55833 | 1417 ft | 0 kts | 40° |
| 2026-04-26 09:38 | 47.44976 | 8.55840 | 1417 ft | 5 kts | 29° |
| 2026-04-26 09:38 | 47.45003 | 8.55851 | 1418 ft | 0 kts | 9° |
| 2026-04-26 09:38 | 47.45011 | 8.55852 | 1418 ft | 5 kts | 8° |
| 2026-04-26 09:39 | 47.45034 | 8.55857 | 1418 ft | 1 kts | 6° |
| 2026-04-26 09:39 | 47.45037 | 8.55857 | 1418 ft | 0 kts | 6° |